sensor_id;sensor_type;location;lat;lon;timestamp;temperature;humidity
71523;HTU21D;59343;51.102;5.884;2024-02-26T00:01:13;8.74;74.23
71523;HTU21D;59343;51.102;5.884;2024-02-26T00:03:47;8.71;74.40
71523;HTU21D;59343;51.102;5.884;2024-02-26T00:06:20;8.65;74.66
71523;HTU21D;59343;51.102;5.884;2024-02-26T00:08:50;8.65;74.70
71523;HTU21D;59343;51.102;5.884;2024-02-26T00:11:22;8.63;74.66
71523;HTU21D;59343;51.102;5.884;2024-02-26T00:13:50;8.66;74.77
71523;HTU21D;59343;51.102;5.884;2024-02-26T00:16:22;8.64;74.73
71523;HTU21D;59343;51.102;5.884;2024-02-26T00:18:50;8.62;74.76
71523;HTU21D;59343;51.102;5.884;2024-02-26T00:21:21;8.61;74.88
71523;HTU21D;59343;51.102;5.884;2024-02-26T00:23:50;8.59;74.89
71523;HTU21D;59343;51.102;5.884;2024-02-26T00:26:17;8.59;74.86
71523;HTU21D;59343;51.102;5.884;2024-02-26T00:28:43;8.55;75.03
71523;HTU21D;59343;51.102;5.884;2024-02-26T00:31:10;8.58;75.28
71523;HTU21D;59343;51.102;5.884;2024-02-26T00:33:38;8.57;75.30
71523;HTU21D;59343;51.102;5.884;2024-02-26T00:36:05;8.59;75.50
71523;HTU21D;59343;51.102;5.884;2024-02-26T00:38:32;8.59;75.57
71523;HTU21D;59343;51.102;5.884;2024-02-26T00:41:03;8.57;75.67
71523;HTU21D;59343;51.102;5.884;2024-02-26T00:43:29;8.57;75.86
71523;HTU21D;59343;51.102;5.884;2024-02-26T00:45:57;8.55;76.04
71523;HTU21D;59343;51.102;5.884;2024-02-26T00:48:24;8.53;76.39
71523;HTU21D;59343;51.102;5.884;2024-02-26T00:50:54;8.53;76.63
71523;HTU21D;59343;51.102;5.884;2024-02-26T00:53:23;8.46;76.70
71523;HTU21D;59343;51.102;5.884;2024-02-26T00:55:51;8.43;76.99
71523;HTU21D;59343;51.102;5.884;2024-02-26T00:58:17;8.42;77.40
71523;HTU21D;59343;51.102;5.884;2024-02-26T01:00:47;8.44;77.45
71523;HTU21D;59343;51.102;5.884;2024-02-26T01:03:25;8.46;77.49
71523;HTU21D;59343;51.102;5.884;2024-02-26T01:12:13;8.43;77.95
71523;HTU21D;59343;51.102;5.884;2024-02-26T01:14:41;8.39;78.08
71523;HTU21D;59343;51.102;5.884;2024-02-26T01:17:09;8.37;78.38
71523;HTU21D;59343;51.102;5.884;2024-02-26T01:25:38;8.24;79.14
71523;HTU21D;59343;51.102;5.884;2024-02-26T01:28:09;8.21;79.33
71523;HTU21D;59343;51.102;5.884;2024-02-26T01:30:35;8.18;79.43
71523;HTU21D;59343;51.102;5.884;2024-02-26T01:33:02;8.15;79.71
71523;HTU21D;59343;51.102;5.884;2024-02-26T01:35:33;8.15;79.80
71523;HTU21D;59343;51.102;5.884;2024-02-26T01:38:00;8.14;79.87
71523;HTU21D;59343;51.102;5.884;2024-02-26T01:40:39;8.13;79.96
71523;HTU21D;59343;51.102;5.884;2024-02-26T01:43:09;8.11;80.16
71523;HTU21D;59343;51.102;5.884;2024-02-26T01:45:55;8.08;80.25
71523;HTU21D;59343;51.102;5.884;2024-02-26T01:48:27;8.06;80.50
71523;HTU21D;59343;51.102;5.884;2024-02-26T01:50:55;8.07;80.69
71523;HTU21D;59343;51.102;5.884;2024-02-26T01:53:30;8.09;80.83
71523;HTU21D;59343;51.102;5.884;2024-02-26T01:56:01;8.11;80.91
71523;HTU21D;59343;51.102;5.884;2024-02-26T01:58:38;8.12;80.92
71523;HTU21D;59343;51.102;5.884;2024-02-26T02:01:05;8.08;80.79
71523;HTU21D;59343;51.102;5.884;2024-02-26T02:03:32;8.09;81.00
71523;HTU21D;59343;51.102;5.884;2024-02-26T02:05:58;8.07;81.09
71523;HTU21D;59343;51.102;5.884;2024-02-26T04:37:42;7.70;86.27
71523;HTU21D;59343;51.102;5.884;2024-02-26T04:40:09;7.69;86.43
71523;HTU21D;59343;51.102;5.884;2024-02-26T04:42:35;7.70;86.45
71523;HTU21D;59343;51.102;5.884;2024-02-26T04:45:02;7.67;86.51
71523;HTU21D;59343;51.102;5.884;2024-02-26T04:47:29;7.67;86.53
71523;HTU21D;59343;51.102;5.884;2024-02-26T04:50:07;7.63;86.58
71523;HTU21D;59343;51.102;5.884;2024-02-26T04:52:44;7.60;86.77
71523;HTU21D;59343;51.102;5.884;2024-02-26T04:55:11;7.61;86.78
71523;HTU21D;59343;51.102;5.884;2024-02-26T04:57:40;7.59;86.85
71523;HTU21D;59343;51.102;5.884;2024-02-26T05:00:07;7.58;86.75
71523;HTU21D;59343;51.102;5.884;2024-02-26T05:02:41;7.56;86.84
71523;HTU21D;59343;51.102;5.884;2024-02-26T05:05:09;7.53;86.78
71523;HTU21D;59343;51.102;5.884;2024-02-26T05:07:42;7.48;87.02
71523;HTU21D;59343;51.102;5.884;2024-02-26T05:10:09;7.47;87.03
71523;HTU21D;59343;51.102;5.884;2024-02-26T05:12:39;7.48;87.12
71523;HTU21D;59343;51.102;5.884;2024-02-26T05:15:09;7.50;87.06
71523;HTU21D;59343;51.102;5.884;2024-02-26T05:17:38;7.48;86.97
71523;HTU21D;59343;51.102;5.884;2024-02-26T05:20:04;7.47;87.01
71523;HTU21D;59343;51.102;5.884;2024-02-26T05:22:33;7.46;87.05
71523;HTU21D;59343;51.102;5.884;2024-02-26T05:25:02;7.47;87.01
71523;HTU21D;59343;51.102;5.884;2024-02-26T05:27:29;7.46;86.84
71523;HTU21D;59343;51.102;5.884;2024-02-26T05:29:55;7.46;86.81
71523;HTU21D;59343;51.102;5.884;2024-02-26T05:32:22;7.45;86.92
71523;HTU21D;59343;51.102;5.884;2024-02-26T05:34:50;7.44;86.98
71523;HTU21D;59343;51.102;5.884;2024-02-26T05:37:22;7.43;87.08
71523;HTU21D;59343;51.102;5.884;2024-02-26T05:39:49;7.41;87.03
71523;HTU21D;59343;51.102;5.884;2024-02-26T05:42:15;7.40;87.06
71523;HTU21D;59343;51.102;5.884;2024-02-26T05:44:41;7.42;87.14
71523;HTU21D;59343;51.102;5.884;2024-02-26T05:47:08;7.44;87.15
71523;HTU21D;59343;51.102;5.884;2024-02-26T05:49:34;7.44;87.19
71523;HTU21D;59343;51.102;5.884;2024-02-26T05:55:06;7.41;87.09
71523;HTU21D;59343;51.102;5.884;2024-02-26T05:57:34;7.38;87.04
71523;HTU21D;59343;51.102;5.884;2024-02-26T07:05:07;7.15;88.81
71523;HTU21D;59343;51.102;5.884;2024-02-26T07:33:43;6.99;89.98
71523;HTU21D;59343;51.102;5.884;2024-02-26T12:07:01;7.46;90.50
71523;HTU21D;59343;51.102;5.884;2024-02-26T12:09:41;7.46;90.49
71523;HTU21D;59343;51.102;5.884;2024-02-26T12:12:18;7.47;90.52
71523;HTU21D;59343;51.102;5.884;2024-02-26T12:14:57;7.55;90.35
71523;HTU21D;59343;51.102;5.884;2024-02-26T12:17:27;7.54;90.23
